Flight Briefing for CPX81

Departure Arrival
Kingsford Smith International Airport (YSSY)
Click to view FAA NOTAMS
Daniel K Inouye International Airport (PHNL)
Click to view FAA NOTAMS
Departure Time Arrival Time
N/A N/A
Aircraft Distance
B747-400BCF 4417nm
Departure METAR Arrival METAR
YSSY 271130Z 28019KT CAVOK 13/M01 Q1012 PHNL 271053Z 00000KT 10SM FEW025 FEW045 25/19 A3003 RMK AO2 SLP168 T02500194 $
Suggested Route





View recent IFR Routes data
Notes



Charts and Procedures

Charts for YSSY
No chart available
Charts for PHNL
No chart available

Windy.com Weather Map